Accueil
METAR-TAF:

METAR-TAF

Aéroports :

Dinwiddie County Airport

Petersburg, Virginie, États-Unis

latitude: 37-11N, longitude: 077-31W, altitude: 59 m

Observation

Le bulletin a été fait il y a 12 minutes, à 21:35 UTC
Vent calme
Température 29°C
Humidité 70%
Pression 1015 hPa
Visibilité: 16.1 km
Nuages épars à une hauteur de 8500 ft

METAR: KPTB 122135Z AUTO 00000KT 10SM SCT085 29/23 A2998 RMK AO2 LTG DSNT ALQS T02930234

Heure: 17:47 (21:47 UTC)


TAF: absent

Observations et prévisions météorologiques de plus de 4000 aéroports (messages METAR et TAF).

Les stations disponibles sont représentées par des disques jaunes et rouges sur la carte.

Passer la souris dessus pour voir le nom de la station.

Cliquer dessus pour voir les observations et prévisions météorologiques.

Pour changer de carte: cliquez sur les boutons verts avec une croix noire pour zoomer, sur le bouton vert avec un tiret pour effectuer un zoom arrière, ou sur les flèches vertes pour les cartes adjacentes.


METAR-TAF: